sensor_id;sensor_type;location;lat;lon;timestamp;P1;durP1;ratioP1;P2;durP2;ratioP2
12601;SDS011;30282;16.436;99.370;2023-05-14T00:00:47;25.50;;;14.77;;
12601;SDS011;30282;16.436;99.370;2023-05-14T00:03:17;22.60;;;13.57;;
12601;SDS011;30282;16.436;99.370;2023-05-14T00:05:46;20.67;;;13.40;;
12601;SDS011;30282;16.436;99.370;2023-05-14T00:08:15;21.30;;;12.37;;
12601;SDS011;30282;16.436;99.370;2023-05-14T00:10:45;20.03;;;13.23;;
12601;SDS011;30282;16.436;99.370;2023-05-14T00:13:14;24.10;;;13.20;;
12601;SDS011;30282;16.436;99.370;2023-05-14T00:15:43;25.33;;;13.60;;
12601;SDS011;30282;16.436;99.370;2023-05-14T00:18:14;18.37;;;11.80;;
12601;SDS011;30282;16.436;99.370;2023-05-14T00:20:43;26.40;;;12.63;;
12601;SDS011;30282;16.436;99.370;2023-05-14T00:23:12;23.17;;;12.97;;
12601;SDS011;30282;16.436;99.370;2023-05-14T00:25:41;28.23;;;13.50;;
12601;SDS011;30282;16.436;99.370;2023-05-14T00:28:10;22.70;;;14.40;;
12601;SDS011;30282;16.436;99.370;2023-05-14T00:30:39;18.73;;;13.63;;
12601;SDS011;30282;16.436;99.370;2023-05-14T00:33:08;21.07;;;13.60;;
12601;SDS011;30282;16.436;99.370;2023-05-14T00:35:39;17.53;;;12.07;;
12601;SDS011;30282;16.436;99.370;2023-05-14T00:38:08;23.40;;;12.73;;
12601;SDS011;30282;16.436;99.370;2023-05-14T00:40:42;24.87;;;11.17;;
12601;SDS011;30282;16.436;99.370;2023-05-14T00:43:15;19.40;;;11.30;;
12601;SDS011;30282;16.436;99.370;2023-05-14T00:45:45;21.93;;;12.10;;
12601;SDS011;30282;16.436;99.370;2023-05-14T00:48:16;20.20;;;10.17;;
12601;SDS011;30282;16.436;99.370;2023-05-14T00:50:48;19.13;;;11.53;;
12601;SDS011;30282;16.436;99.370;2023-05-14T00:53:18;17.67;;;11.37;;
12601;SDS011;30282;16.436;99.370;2023-05-14T00:55:47;20.70;;;11.87;;
12601;SDS011;30282;16.436;99.370;2023-05-14T00:58:17;18.63;;;12.17;;
12601;SDS011;30282;16.436;99.370;2023-05-14T01:00:48;21.03;;;12.57;;
12601;SDS011;30282;16.436;99.370;2023-05-14T01:03:17;19.33;;;10.90;;
12601;SDS011;30282;16.436;99.370;2023-05-14T01:05:50;20.80;;;10.83;;
12601;SDS011;30282;16.436;99.370;2023-05-14T01:08:26;16.93;;;10.77;;
12601;SDS011;30282;16.436;99.370;2023-05-14T01:11:01;17.47;;;10.13;;
12601;SDS011;30282;16.436;99.370;2023-05-14T01:13:36;18.57;;;11.00;;
12601;SDS011;30282;16.436;99.370;2023-05-14T01:16:11;16.87;;;9.60;;
12601;SDS011;30282;16.436;99.370;2023-05-14T01:18:42;26.10;;;8.67;;
12601;SDS011;30282;16.436;99.370;2023-05-14T01:24:11;16.57;;;8.70;;
12601;SDS011;30282;16.436;99.370;2023-05-14T01:26:40;24.23;;;8.03;;
12601;SDS011;30282;16.436;99.370;2023-05-14T01:29:10;18.70;;;8.87;;
12601;SDS011;30282;16.436;99.370;2023-05-14T01:31:46;21.20;;;8.90;;
12601;SDS011;30282;16.436;99.370;2023-05-14T01:34:18;18.67;;;7.60;;
12601;SDS011;30282;16.436;99.370;2023-05-14T01:36:51;17.73;;;7.60;;
12601;SDS011;30282;16.436;99.370;2023-05-14T01:39:23;17.40;;;6.93;;
12601;SDS011;30282;16.436;99.370;2023-05-14T01:41:53;14.50;;;7.60;;
12601;SDS011;30282;16.436;99.370;2023-05-14T01:44:23;18.30;;;9.50;;
12601;SDS011;30282;16.436;99.370;2023-05-14T01:46:52;14.13;;;8.40;;
12601;SDS011;30282;16.436;99.370;2023-05-14T01:49:21;13.30;;;8.83;;
12601;SDS011;30282;16.436;99.370;2023-05-14T01:51:52;15.33;;;8.80;;
12601;SDS011;30282;16.436;99.370;2023-05-14T01:54:21;18.93;;;8.27;;
12601;SDS011;30282;16.436;99.370;2023-05-14T01:56:50;27.93;;;9.13;;
12601;SDS011;30282;16.436;99.370;2023-05-14T01:59:19;13.97;;;8.70;;
12601;SDS011;30282;16.436;99.370;2023-05-14T02:01:51;19.00;;;8.73;;
12601;SDS011;30282;16.436;99.370;2023-05-14T02:04:43;17.73;;;7.80;;
12601;SDS011;30282;16.436;99.370;2023-05-14T02:07:14;18.30;;;8.20;;
12601;SDS011;30282;16.436;99.370;2023-05-14T02:09:43;16.70;;;8.97;;
12601;SDS011;30282;16.436;99.370;2023-05-14T02:12:12;22.43;;;8.03;;
12601;SDS011;30282;16.436;99.370;2023-05-14T02:14:42;13.83;;;8.10;;
12601;SDS011;30282;16.436;99.370;2023-05-14T02:17:11;20.97;;;7.77;;
12601;SDS011;30282;16.436;99.370;2023-05-14T02:19:42;15.33;;;8.13;;
12601;SDS011;30282;16.436;99.370;2023-05-14T02:22:19;21.13;;;8.70;;
12601;SDS011;30282;16.436;99.370;2023-05-14T02:24:48;19.97;;;8.80;;
12601;SDS011;30282;16.436;99.370;2023-05-14T02:27:17;15.00;;;8.90;;
12601;SDS011;30282;16.436;99.370;2023-05-14T02:29:46;17.13;;;7.67;;
12601;SDS011;30282;16.436;99.370;2023-05-14T02:32:15;16.40;;;7.87;;
12601;SDS011;30282;16.436;99.370;2023-05-14T02:34:44;14.83;;;7.30;;
12601;SDS011;30282;16.436;99.370;2023-05-14T02:37:13;13.60;;;7.33;;
12601;SDS011;30282;16.436;99.370;2023-05-14T02:39:44;24.60;;;7.73;;
12601;SDS011;30282;16.436;99.370;2023-05-14T02:42:18;16.60;;;8.53;;
12601;SDS011;30282;16.436;99.370;2023-05-14T02:44:47;19.83;;;7.90;;
12601;SDS011;30282;16.436;99.370;2023-05-14T02:47:17;14.73;;;7.23;;
12601;SDS011;30282;16.436;99.370;2023-05-14T02:49:46;22.60;;;8.57;;
12601;SDS011;30282;16.436;99.370;2023-05-14T02:52:15;25.80;;;9.47;;
12601;SDS011;30282;16.436;99.370;2023-05-14T02:54:45;14.73;;;8.60;;
12601;SDS011;30282;16.436;99.370;2023-05-14T02:57:14;13.87;;;9.10;;
12601;SDS011;30282;16.436;99.370;2023-05-14T02:59:44;17.13;;;7.90;;
12601;SDS011;30282;16.436;99.370;2023-05-14T03:02:13;19.00;;;8.60;;
12601;SDS011;30282;16.436;99.370;2023-05-14T03:04:42;15.43;;;8.57;;
12601;SDS011;30282;16.436;99.370;2023-05-14T03:07:11;19.43;;;7.37;;
12601;SDS011;30282;16.436;99.370;2023-05-14T03:09:40;21.37;;;9.20;;
12601;SDS011;30282;16.436;99.370;2023-05-14T03:12:11;10.80;;;7.40;;
12601;SDS011;30282;16.436;99.370;2023-05-14T03:14:40;24.77;;;8.67;;
12601;SDS011;30282;16.436;99.370;2023-05-14T03:17:09;18.57;;;8.27;;
12601;SDS011;30282;16.436;99.370;2023-05-14T03:19:39;16.90;;;7.70;;
12601;SDS011;30282;16.436;99.370;2023-05-14T03:22:08;19.50;;;8.90;;
12601;SDS011;30282;16.436;99.370;2023-05-14T03:24:37;17.63;;;9.60;;
12601;SDS011;30282;16.436;99.370;2023-05-14T03:27:07;28.93;;;8.90;;
12601;SDS011;30282;16.436;99.370;2023-05-14T03:29:37;26.50;;;10.87;;
12601;SDS011;30282;16.436;99.370;2023-05-14T03:32:09;17.43;;;9.27;;
12601;SDS011;30282;16.436;99.370;2023-05-14T03:34:38;20.80;;;10.00;;
12601;SDS011;30282;16.436;99.370;2023-05-14T03:37:09;21.60;;;10.10;;
12601;SDS011;30282;16.436;99.370;2023-05-14T03:39:38;26.53;;;10.33;;
12601;SDS011;30282;16.436;99.370;2023-05-14T03:42:08;14.30;;;8.80;;
12601;SDS011;30282;16.436;99.370;2023-05-14T03:44:38;24.10;;;9.77;;
12601;SDS011;30282;16.436;99.370;2023-05-14T03:47:07;17.83;;;9.57;;
12601;SDS011;30282;16.436;99.370;2023-05-14T03:49:37;18.40;;;9.40;;
12601;SDS011;30282;16.436;99.370;2023-05-14T03:52:06;19.10;;;10.40;;
12601;SDS011;30282;16.436;99.370;2023-05-14T03:54:35;19.00;;;9.30;;
12601;SDS011;30282;16.436;99.370;2023-05-14T03:57:05;22.13;;;9.67;;
12601;SDS011;30282;16.436;99.370;2023-05-14T03:59:35;25.97;;;9.60;;
12601;SDS011;30282;16.436;99.370;2023-05-14T04:02:05;17.33;;;8.60;;
12601;SDS011;30282;16.436;99.370;2023-05-14T04:04:37;18.27;;;10.30;;
12601;SDS011;30282;16.436;99.370;2023-05-14T04:07:06;24.50;;;10.43;;
12601;SDS011;30282;16.436;99.370;2023-05-14T04:09:36;22.20;;;10.30;;
12601;SDS011;30282;16.436;99.370;2023-05-14T04:12:05;25.50;;;10.57;;
12601;SDS011;30282;16.436;99.370;2023-05-14T04:14:35;20.03;;;9.70;;
12601;SDS011;30282;16.436;99.370;2023-05-14T04:17:06;19.17;;;11.00;;
12601;SDS011;30282;16.436;99.370;2023-05-14T04:19:35;16.27;;;9.60;;
12601;SDS011;30282;16.436;99.370;2023-05-14T04:22:05;21.50;;;11.23;;
12601;SDS011;30282;16.436;99.370;2023-05-14T04:24:44;21.47;;;11.53;;
12601;SDS011;30282;16.436;99.370;2023-05-14T04:27:18;19.30;;;10.50;;
12601;SDS011;30282;16.436;99.370;2023-05-14T04:29:48;21.77;;;10.47;;
12601;SDS011;30282;16.436;99.370;2023-05-14T04:32:22;21.67;;;10.50;;
12601;SDS011;30282;16.436;99.370;2023-05-14T04:34:54;26.97;;;10.30;;
12601;SDS011;30282;16.436;99.370;2023-05-14T04:37:25;27.13;;;12.13;;
12601;SDS011;30282;16.436;99.370;2023-05-14T04:39:55;20.87;;;11.40;;
12601;SDS011;30282;16.436;99.370;2023-05-14T04:42:24;19.83;;;11.33;;
12601;SDS011;30282;16.436;99.370;2023-05-14T04:44:56;25.77;;;12.07;;
12601;SDS011;30282;16.436;99.370;2023-05-14T04:47:35;21.03;;;11.40;;
12601;SDS011;30282;16.436;99.370;2023-05-14T04:50:04;20.50;;;11.83;;
12601;SDS011;30282;16.436;99.370;2023-05-14T04:52:34;27.30;;;13.20;;
12601;SDS011;30282;16.436;99.370;2023-05-14T04:55:03;20.47;;;11.90;;
12601;SDS011;30282;16.436;99.370;2023-05-14T04:57:36;23.23;;;11.27;;
12601;SDS011;30282;16.436;99.370;2023-05-14T05:00:05;23.20;;;11.87;;
12601;SDS011;30282;16.436;99.370;2023-05-14T05:02:37;19.53;;;12.77;;
12601;SDS011;30282;16.436;99.370;2023-05-14T05:05:06;27.50;;;13.47;;
12601;SDS011;30282;16.436;99.370;2023-05-14T05:07:36;16.63;;;10.93;;
12601;SDS011;30282;16.436;99.370;2023-05-14T05:10:06;18.90;;;11.13;;
12601;SDS011;30282;16.436;99.370;2023-05-14T05:12:35;24.63;;;12.50;;
12601;SDS011;30282;16.436;99.370;2023-05-14T05:15:05;23.13;;;11.80;;
12601;SDS011;30282;16.436;99.370;2023-05-14T05:17:37;19.70;;;11.97;;
12601;SDS011;30282;16.436;99.370;2023-05-14T05:20:06;20.60;;;11.47;;
12601;SDS011;30282;16.436;99.370;2023-05-14T05:22:36;24.00;;;11.27;;
12601;SDS011;30282;16.436;99.370;2023-05-14T05:25:05;28.13;;;12.73;;
12601;SDS011;30282;16.436;99.370;2023-05-14T05:27:38;21.73;;;12.93;;
12601;SDS011;30282;16.436;99.370;2023-05-14T05:30:07;17.47;;;10.97;;
12601;SDS011;30282;16.436;99.370;2023-05-14T05:32:39;20.20;;;12.60;;
12601;SDS011;30282;16.436;99.370;2023-05-14T05:35:08;28.73;;;12.70;;
12601;SDS011;30282;16.436;99.370;2023-05-14T05:37:37;28.57;;;13.07;;
12601;SDS011;30282;16.436;99.370;2023-05-14T05:40:07;32.03;;;12.13;;
12601;SDS011;30282;16.436;99.370;2023-05-14T05:42:38;23.17;;;11.73;;
12601;SDS011;30282;16.436;99.370;2023-05-14T05:45:10;18.87;;;12.10;;
12601;SDS011;30282;16.436;99.370;2023-05-14T05:47:41;25.20;;;13.40;;
12601;SDS011;30282;16.436;99.370;2023-05-14T05:50:10;23.00;;;11.63;;
12601;SDS011;30282;16.436;99.370;2023-05-14T05:52:39;21.63;;;12.17;;
12601;SDS011;30282;16.436;99.370;2023-05-14T05:55:11;28.27;;;12.17;;
12601;SDS011;30282;16.436;99.370;2023-05-14T05:57:44;21.87;;;12.10;;
12601;SDS011;30282;16.436;99.370;2023-05-14T06:00:16;20.23;;;12.40;;
12601;SDS011;30282;16.436;99.370;2023-05-14T06:02:49;26.80;;;11.90;;
12601;SDS011;30282;16.436;99.370;2023-05-14T06:05:21;19.20;;;11.50;;
12601;SDS011;30282;16.436;99.370;2023-05-14T06:07:52;20.67;;;12.10;;
12601;SDS011;30282;16.436;99.370;2023-05-14T06:10:28;15.03;;;10.77;;
12601;SDS011;30282;16.436;99.370;2023-05-14T06:12:57;22.70;;;11.87;;
12601;SDS011;30282;16.436;99.370;2023-05-14T06:15:27;33.90;;;11.93;;
12601;SDS011;30282;16.436;99.370;2023-05-14T06:17:58;20.17;;;11.40;;
12601;SDS011;30282;16.436;99.370;2023-05-14T06:20:28;26.63;;;11.53;;
12601;SDS011;30282;16.436;99.370;2023-05-14T06:22:57;23.30;;;14.03;;
12601;SDS011;30282;16.436;99.370;2023-05-14T06:25:26;27.80;;;11.93;;
12601;SDS011;30282;16.436;99.370;2023-05-14T06:27:56;32.30;;;12.57;;
12601;SDS011;30282;16.436;99.370;2023-05-14T06:30:25;28.67;;;13.00;;
12601;SDS011;30282;16.436;99.370;2023-05-14T06:32:54;27.20;;;12.60;;
12601;SDS011;30282;16.436;99.370;2023-05-14T06:35:25;86.13;;;16.90;;
12601;SDS011;30282;16.436;99.370;2023-05-14T06:37:54;19.70;;;12.50;;
12601;SDS011;30282;16.436;99.370;2023-05-14T06:40:24;25.40;;;12.53;;
12601;SDS011;30282;16.436;99.370;2023-05-14T06:42:53;22.87;;;12.27;;
12601;SDS011;30282;16.436;99.370;2023-05-14T06:45:24;26.00;;;13.43;;
12601;SDS011;30282;16.436;99.370;2023-05-14T06:47:54;30.80;;;13.03;;
12601;SDS011;30282;16.436;99.370;2023-05-14T06:50:25;27.60;;;13.23;;
12601;SDS011;30282;16.436;99.370;2023-05-14T06:52:54;27.80;;;13.00;;
12601;SDS011;30282;16.436;99.370;2023-05-14T06:55:24;26.33;;;13.47;;
12601;SDS011;30282;16.436;99.370;2023-05-14T06:57:53;108.40;;;18.77;;
12601;SDS011;30282;16.436;99.370;2023-05-14T07:00:23;55.83;;;18.20;;
12601;SDS011;30282;16.436;99.370;2023-05-14T07:02:52;55.07;;;17.47;;
12601;SDS011;30282;16.436;99.370;2023-05-14T07:05:22;32.43;;;18.90;;
12601;SDS011;30282;16.436;99.370;2023-05-14T07:07:53;38.20;;;20.90;;
12601;SDS011;30282;16.436;99.370;2023-05-14T07:10:22;42.27;;;20.13;;
12601;SDS011;30282;16.436;99.370;2023-05-14T07:12:51;31.80;;;20.63;;
12601;SDS011;30282;16.436;99.370;2023-05-14T07:15:21;35.20;;;18.07;;
12601;SDS011;30282;16.436;99.370;2023-05-14T07:17:53;25.67;;;18.90;;
12601;SDS011;30282;16.436;99.370;2023-05-14T07:20:23;33.93;;;18.30;;
12601;SDS011;30282;16.436;99.370;2023-05-14T07:22:54;30.40;;;18.53;;
12601;SDS011;30282;16.436;99.370;2023-05-14T07:25:23;32.97;;;19.27;;
12601;SDS011;30282;16.436;99.370;2023-05-14T07:27:52;46.40;;;19.70;;
12601;SDS011;30282;16.436;99.370;2023-05-14T07:30:22;32.17;;;18.67;;
12601;SDS011;30282;16.436;99.370;2023-05-14T07:32:51;27.03;;;16.77;;
12601;SDS011;30282;16.436;99.370;2023-05-14T07:35:20;28.87;;;17.30;;
12601;SDS011;30282;16.436;99.370;2023-05-14T07:37:51;32.60;;;17.97;;
12601;SDS011;30282;16.436;99.370;2023-05-14T07:40:21;30.27;;;16.17;;
12601;SDS011;30282;16.436;99.370;2023-05-14T07:42:51;26.07;;;16.90;;
12601;SDS011;30282;16.436;99.370;2023-05-14T07:45:20;28.50;;;17.00;;
12601;SDS011;30282;16.436;99.370;2023-05-14T07:47:50;28.03;;;16.37;;
12601;SDS011;30282;16.436;99.370;2023-05-14T07:50:19;22.00;;;10.43;;
12601;SDS011;30282;16.436;99.370;2023-05-14T07:52:48;26.83;;;9.90;;
12601;SDS011;30282;16.436;99.370;2023-05-14T07:55:19;33.03;;;10.17;;
12601;SDS011;30282;16.436;99.370;2023-05-14T07:57:48;23.27;;;8.90;;
12601;SDS011;30282;16.436;99.370;2023-05-14T08:00:20;20.77;;;9.47;;
12601;SDS011;30282;16.436;99.370;2023-05-14T08:02:49;27.90;;;9.70;;
12601;SDS011;30282;16.436;99.370;2023-05-14T08:05:18;22.30;;;10.87;;
12601;SDS011;30282;16.436;99.370;2023-05-14T08:07:48;26.10;;;11.73;;
12601;SDS011;30282;16.436;99.370;2023-05-14T08:10:19;28.37;;;11.67;;
12601;SDS011;30282;16.436;99.370;2023-05-14T08:12:48;22.80;;;13.20;;
12601;SDS011;30282;16.436;99.370;2023-05-14T08:15:17;25.10;;;12.93;;
12601;SDS011;30282;16.436;99.370;2023-05-14T08:17:46;27.30;;;12.60;;
12601;SDS011;30282;16.436;99.370;2023-05-14T08:20:15;32.10;;;13.87;;
12601;SDS011;30282;16.436;99.370;2023-05-14T08:22:47;35.77;;;12.63;;
12601;SDS011;30282;16.436;99.370;2023-05-14T08:25:16;23.47;;;13.90;;
12601;SDS011;30282;16.436;99.370;2023-05-14T08:27:47;23.53;;;13.10;;
12601;SDS011;30282;16.436;99.370;2023-05-14T08:30:16;23.20;;;13.40;;
12601;SDS011;30282;16.436;99.370;2023-05-14T08:32:47;18.00;;;12.33;;
12601;SDS011;30282;16.436;99.370;2023-05-14T08:35:17;22.33;;;12.67;;
12601;SDS011;30282;16.436;99.370;2023-05-14T08:37:47;18.20;;;13.00;;
12601;SDS011;30282;16.436;99.370;2023-05-14T08:40:17;22.07;;;12.10;;
12601;SDS011;30282;16.436;99.370;2023-05-14T08:42:48;26.90;;;11.47;;
12601;SDS011;30282;16.436;99.370;2023-05-14T08:45:23;19.97;;;12.90;;
12601;SDS011;30282;16.436;99.370;2023-05-14T08:47:56;18.40;;;12.40;;
12601;SDS011;30282;16.436;99.370;2023-05-14T08:50:26;19.63;;;12.10;;
12601;SDS011;30282;16.436;99.370;2023-05-14T08:52:56;25.83;;;12.67;;
12601;SDS011;30282;16.436;99.370;2023-05-14T08:55:28;20.77;;;12.47;;
12601;SDS011;30282;16.436;99.370;2023-05-14T08:57:58;26.17;;;14.10;;
12601;SDS011;30282;16.436;99.370;2023-05-14T09:00:28;18.70;;;13.90;;
12601;SDS011;30282;16.436;99.370;2023-05-14T09:02:57;21.30;;;13.53;;
12601;SDS011;30282;16.436;99.370;2023-05-14T09:05:31;17.57;;;12.73;;
12601;SDS011;30282;16.436;99.370;2023-05-14T09:08:00;25.63;;;12.87;;
12601;SDS011;30282;16.436;99.370;2023-05-14T09:10:49;25.97;;;14.03;;
12601;SDS011;30282;16.436;99.370;2023-05-14T09:13:27;20.53;;;11.93;;
12601;SDS011;30282;16.436;99.370;2023-05-14T09:15:56;26.53;;;13.07;;
12601;SDS011;30282;16.436;99.370;2023-05-14T09:18:25;21.70;;;12.93;;
12601;SDS011;30282;16.436;99.370;2023-05-14T09:20:54;20.60;;;13.10;;
12601;SDS011;30282;16.436;99.370;2023-05-14T09:23:28;17.97;;;11.73;;
12601;SDS011;30282;16.436;99.370;2023-05-14T09:26:07;19.23;;;12.40;;
12601;SDS011;30282;16.436;99.370;2023-05-14T09:28:38;17.50;;;11.90;;
12601;SDS011;30282;16.436;99.370;2023-05-14T09:31:10;28.43;;;12.80;;
12601;SDS011;30282;16.436;99.370;2023-05-14T09:33:39;21.40;;;13.60;;
12601;SDS011;30282;16.436;99.370;2023-05-14T09:36:08;30.43;;;15.73;;
12601;SDS011;30282;16.436;99.370;2023-05-14T09:38:39;21.97;;;14.70;;
12601;SDS011;30282;16.436;99.370;2023-05-14T09:41:10;25.17;;;14.00;;
12601;SDS011;30282;16.436;99.370;2023-05-14T09:43:39;17.10;;;12.77;;
12601;SDS011;30282;16.436;99.370;2023-05-14T09:46:08;25.20;;;13.57;;
12601;SDS011;30282;16.436;99.370;2023-05-14T09:48:40;23.23;;;12.53;;
12601;SDS011;30282;16.436;99.370;2023-05-14T09:51:13;19.27;;;12.80;;
12601;SDS011;30282;16.436;99.370;2023-05-14T09:53:43;24.03;;;11.83;;
12601;SDS011;30282;16.436;99.370;2023-05-14T09:56:17;20.53;;;12.60;;
12601;SDS011;30282;16.436;99.370;2023-05-14T09:58:48;22.67;;;13.90;;
12601;SDS011;30282;16.436;99.370;2023-05-14T10:01:18;22.73;;;14.13;;
12601;SDS011;30282;16.436;99.370;2023-05-14T10:03:48;27.07;;;14.37;;
12601;SDS011;30282;16.436;99.370;2023-05-14T10:06:18;19.43;;;13.20;;
12601;SDS011;30282;16.436;99.370;2023-05-14T10:08:51;23.50;;;15.00;;
12601;SDS011;30282;16.436;99.370;2023-05-14T10:11:36;19.43;;;13.67;;
12601;SDS011;30282;16.436;99.370;2023-05-14T10:14:17;21.17;;;14.77;;
12601;SDS011;30282;16.436;99.370;2023-05-14T10:16:55;20.93;;;15.10;;
12601;SDS011;30282;16.436;99.370;2023-05-14T10:19:33;19.60;;;13.70;;
12601;SDS011;30282;16.436;99.370;2023-05-14T10:22:06;22.87;;;14.70;;
12601;SDS011;30282;16.436;99.370;2023-05-14T10:24:36;25.20;;;14.97;;
12601;SDS011;30282;16.436;99.370;2023-05-14T10:27:07;25.80;;;14.97;;
12601;SDS011;30282;16.436;99.370;2023-05-14T10:29:37;23.73;;;13.67;;
12601;SDS011;30282;16.436;99.370;2023-05-14T10:32:07;31.77;;;15.60;;
12601;SDS011;30282;16.436;99.370;2023-05-14T10:34:38;25.60;;;16.00;;
12601;SDS011;30282;16.436;99.370;2023-05-14T10:37:08;24.70;;;15.07;;
12601;SDS011;30282;16.436;99.370;2023-05-14T10:39:39;27.33;;;14.40;;
12601;SDS011;30282;16.436;99.370;2023-05-14T10:42:15;24.17;;;14.93;;
12601;SDS011;30282;16.436;99.370;2023-05-14T10:44:47;28.67;;;16.10;;
12601;SDS011;30282;16.436;99.370;2023-05-14T10:47:21;30.50;;;16.37;;
12601;SDS011;30282;16.436;99.370;2023-05-14T10:49:52;22.43;;;14.33;;
12601;SDS011;30282;16.436;99.370;2023-05-14T10:52:24;28.07;;;16.23;;
12601;SDS011;30282;16.436;99.370;2023-05-14T10:54:54;24.93;;;17.07;;
12601;SDS011;30282;16.436;99.370;2023-05-14T10:57:28;22.70;;;15.87;;
12601;SDS011;30282;16.436;99.370;2023-05-14T10:59:59;22.80;;;14.80;;
12601;SDS011;30282;16.436;99.370;2023-05-14T11:02:29;19.17;;;14.23;;
12601;SDS011;30282;16.436;99.370;2023-05-14T11:05:00;20.77;;;14.30;;
12601;SDS011;30282;16.436;99.370;2023-05-14T11:07:30;25.13;;;15.17;;
12601;SDS011;30282;16.436;99.370;2023-05-14T11:10:01;26.67;;;15.67;;
12601;SDS011;30282;16.436;99.370;2023-05-14T11:12:33;21.33;;;14.43;;
12601;SDS011;30282;16.436;99.370;2023-05-14T11:15:04;22.80;;;14.23;;
12601;SDS011;30282;16.436;99.370;2023-05-14T11:17:36;22.30;;;14.87;;
12601;SDS011;30282;16.436;99.370;2023-05-14T11:20:06;25.60;;;16.40;;
12601;SDS011;30282;16.436;99.370;2023-05-14T11:22:36;23.50;;;16.20;;
12601;SDS011;30282;16.436;99.370;2023-05-14T11:25:06;26.63;;;15.77;;
12601;SDS011;30282;16.436;99.370;2023-05-14T11:27:41;25.30;;;16.00;;
12601;SDS011;30282;16.436;99.370;2023-05-14T11:30:12;38.70;;;17.40;;
12601;SDS011;30282;16.436;99.370;2023-05-14T11:32:43;22.90;;;15.90;;
12601;SDS011;30282;16.436;99.370;2023-05-14T11:35:13;23.80;;;16.30;;
12601;SDS011;30282;16.436;99.370;2023-05-14T11:37:46;26.17;;;15.90;;
12601;SDS011;30282;16.436;99.370;2023-05-14T11:40:18;28.47;;;16.53;;
12601;SDS011;30282;16.436;99.370;2023-05-14T11:42:51;27.07;;;17.80;;
12601;SDS011;30282;16.436;99.370;2023-05-14T11:45:24;22.33;;;16.97;;
12601;SDS011;30282;16.436;99.370;2023-05-14T11:47:54;27.73;;;16.77;;
12601;SDS011;30282;16.436;99.370;2023-05-14T11:50:23;23.43;;;16.00;;
12601;SDS011;30282;16.436;99.370;2023-05-14T11:52:55;40.43;;;18.20;;
12601;SDS011;30282;16.436;99.370;2023-05-14T11:55:27;32.63;;;19.00;;
12601;SDS011;30282;16.436;99.370;2023-05-14T11:57:58;24.10;;;17.40;;
12601;SDS011;30282;16.436;99.370;2023-05-14T12:00:27;25.87;;;17.10;;
12601;SDS011;30282;16.436;99.370;2023-05-14T12:02:58;23.30;;;16.13;;
12601;SDS011;30282;16.436;99.370;2023-05-14T12:05:27;26.50;;;17.10;;
12601;SDS011;30282;16.436;99.370;2023-05-14T12:07:57;24.80;;;17.70;;
12601;SDS011;30282;16.436;99.370;2023-05-14T12:10:26;30.60;;;18.10;;
12601;SDS011;30282;16.436;99.370;2023-05-14T12:12:55;32.03;;;17.47;;
12601;SDS011;30282;16.436;99.370;2023-05-14T12:15:29;33.33;;;18.33;;
12601;SDS011;30282;16.436;99.370;2023-05-14T12:17:59;27.13;;;15.70;;
12601;SDS011;30282;16.436;99.370;2023-05-14T12:20:28;22.63;;;15.90;;
12601;SDS011;30282;16.436;99.370;2023-05-14T12:22:57;29.13;;;17.00;;
12601;SDS011;30282;16.436;99.370;2023-05-14T12:25:27;31.50;;;16.93;;
12601;SDS011;30282;16.436;99.370;2023-05-14T12:27:58;27.03;;;15.90;;
12601;SDS011;30282;16.436;99.370;2023-05-14T12:30:29;31.07;;;16.07;;
12601;SDS011;30282;16.436;99.370;2023-05-14T12:33:09;28.37;;;15.50;;
12601;SDS011;30282;16.436;99.370;2023-05-14T12:35:41;25.70;;;14.60;;
12601;SDS011;30282;16.436;99.370;2023-05-14T12:38:11;26.33;;;15.60;;
12601;SDS011;30282;16.436;99.370;2023-05-14T12:40:41;24.20;;;14.53;;
12601;SDS011;30282;16.436;99.370;2023-05-14T12:43:12;25.00;;;14.37;;
12601;SDS011;30282;16.436;99.370;2023-05-14T12:45:41;29.57;;;15.57;;
12601;SDS011;30282;16.436;99.370;2023-05-14T12:48:11;25.77;;;16.00;;
12601;SDS011;30282;16.436;99.370;2023-05-14T12:50:41;28.90;;;15.73;;
12601;SDS011;30282;16.436;99.370;2023-05-14T12:53:10;24.87;;;15.70;;
12601;SDS011;30282;16.436;99.370;2023-05-14T12:55:42;24.23;;;15.00;;
12601;SDS011;30282;16.436;99.370;2023-05-14T12:58:13;20.90;;;14.50;;
12601;SDS011;30282;16.436;99.370;2023-05-14T13:00:42;25.40;;;15.20;;
12601;SDS011;30282;16.436;99.370;2023-05-14T13:03:11;22.97;;;14.40;;
12601;SDS011;30282;16.436;99.370;2023-05-14T13:05:40;25.63;;;14.30;;
12601;SDS011;30282;16.436;99.370;2023-05-14T13:08:09;26.40;;;14.30;;
12601;SDS011;30282;16.436;99.370;2023-05-14T13:10:42;20.90;;;15.23;;
12601;SDS011;30282;16.436;99.370;2023-05-14T13:13:13;24.43;;;15.13;;
12601;SDS011;30282;16.436;99.370;2023-05-14T13:15:43;24.53;;;14.97;;
12601;SDS011;30282;16.436;99.370;2023-05-14T13:18:15;32.60;;;15.40;;
12601;SDS011;30282;16.436;99.370;2023-05-14T13:20:45;22.87;;;15.57;;
12601;SDS011;30282;16.436;99.370;2023-05-14T13:23:14;27.30;;;16.30;;
12601;SDS011;30282;16.436;99.370;2023-05-14T13:25:43;23.10;;;15.43;;
12601;SDS011;30282;16.436;99.370;2023-05-14T13:28:14;26.90;;;15.17;;
12601;SDS011;30282;16.436;99.370;2023-05-14T13:31:01;24.73;;;16.17;;
12601;SDS011;30282;16.436;99.370;2023-05-14T13:33:32;24.00;;;15.00;;
12601;SDS011;30282;16.436;99.370;2023-05-14T13:36:02;25.00;;;17.00;;
12601;SDS011;30282;16.436;99.370;2023-05-14T13:38:32;24.80;;;16.53;;
12601;SDS011;30282;16.436;99.370;2023-05-14T13:41:02;23.10;;;16.53;;
12601;SDS011;30282;16.436;99.370;2023-05-14T13:43:36;24.60;;;15.97;;
12601;SDS011;30282;16.436;99.370;2023-05-14T13:46:10;24.83;;;17.10;;
12601;SDS011;30282;16.436;99.370;2023-05-14T13:48:39;25.60;;;16.83;;
12601;SDS011;30282;16.436;99.370;2023-05-14T13:51:10;36.90;;;16.80;;
12601;SDS011;30282;16.436;99.370;2023-05-14T13:53:43;21.83;;;15.73;;
12601;SDS011;30282;16.436;99.370;2023-05-14T13:56:15;24.50;;;15.67;;
12601;SDS011;30282;16.436;99.370;2023-05-14T13:58:45;27.03;;;16.20;;
12601;SDS011;30282;16.436;99.370;2023-05-14T14:01:15;23.80;;;18.43;;
12601;SDS011;30282;16.436;99.370;2023-05-14T14:03:44;28.93;;;17.27;;
12601;SDS011;30282;16.436;99.370;2023-05-14T14:06:16;27.83;;;16.47;;
12601;SDS011;30282;16.436;99.370;2023-05-14T14:08:45;32.57;;;18.83;;
12601;SDS011;30282;16.436;99.370;2023-05-14T14:11:14;28.77;;;19.23;;
12601;SDS011;30282;16.436;99.370;2023-05-14T14:13:45;28.40;;;19.63;;
12601;SDS011;30282;16.436;99.370;2023-05-14T14:16:14;30.63;;;20.20;;
12601;SDS011;30282;16.436;99.370;2023-05-14T14:18:43;25.67;;;17.53;;
12601;SDS011;30282;16.436;99.370;2023-05-14T14:21:13;24.50;;;18.00;;
12601;SDS011;30282;16.436;99.370;2023-05-14T14:23:43;25.73;;;18.20;;
12601;SDS011;30282;16.436;99.370;2023-05-14T14:26:12;25.60;;;18.13;;
12601;SDS011;30282;16.436;99.370;2023-05-14T14:28:42;28.80;;;18.27;;
12601;SDS011;30282;16.436;99.370;2023-05-14T14:31:12;30.57;;;18.37;;
12601;SDS011;30282;16.436;99.370;2023-05-14T14:33:42;26.60;;;18.67;;